Aeroporto :
LOGIN :

Iscrizione | Disclaimer

   EN    FR    IT 

 










Sommario :    VFR   VFR Marginale   IFR   IFR Intensivo   IFR Molto Intensivo
Visibilità : 
Base nubi : 
>= 8 km
>= 3000ft
5 / 8 km
1000 / 3000 ft
1500m / 5 km
500 / 1000 ft
800 / 1500m
200 / 500 ft
< 800m
< 200 ft
Simboli :   Temporali  Nebbia  Neve Forte  Precipitazioni Forti  Vento > 20 kt
SIGMETs :   Varie  Temporali  Ghiacco  Turbolenza  Onda orograficha  Ceneri Vulcaniche






- Altitudine del aeroporto : 308 ft
- Codice IATA : POZ


EPPO - Poznan-Lawica

ULTIMO METAR :
  • 220900Z 23012KT 9999 BKN015 21/17 Q1008

METARs OBSOLETI :
  • 220830Z 23008KT 9999 BKN014 21/18 Q1008
  • 220800Z 22009KT 9999 BKN013 20/17 Q1008
  • 220730Z 23008KT 9999 BKN011 20/18 Q1008
  • 220700Z 22010KT 9999 BKN008 20/18 Q1008
  • 220630Z 21008KT 200V260 9999 SCT006 20/18 Q1008
  • 220600Z 25007KT 9999 FEW006 SCT021 19/18 Q1008
  • 220530Z 24003KT 9999 -RA NSC 18/17 Q1008
  • 220500Z 26009KT 9999 -SHRA FEW007 BKN060CB 18/17 Q1008 RESHRA
  • 220430Z 24012KT 9999 -SHRA FEW009 BKN065CB 19/18 Q1009 RESHRA

TAF AMD TAF EPPO
Valido dal 22 a 07 ore il 23 a 06 ore UTC


220701Z 2207/2306 22008KT 9999 BKN008
BECMG 2207/2209 BKN020
TEMPO 2207/2215 26015G25KT SHRA BKN017CB
PROB30
TEMPO 2209/2215 VRB18G35KT 3000 TSRA
TEMPO 2215/2217 27015G25KT



MetMap, La meteo Aeronautica in un colpo d'occhio ! - Copyright ORBIFLY Dicembre 2007 - Disclaimer

ORBIFLY MET'MAP TEAM :

Programmazione e sviluppo : Alexandra Zaïnal
Concezione : Baudouin d'Aumeries
Supporto tecnico e logistico : Manuel Goepfert
Aiuto : Marc-Olivier Méhu
Aiuto per la traduzione : Arnaldo La Scala




FONTI E CREDITI :

   NOAA